createdAt,value
2018-08-09T00:00:47.646Z,86.94
2018-08-09T00:01:47.667Z,86.94
2018-08-09T00:02:47.683Z,87.52
2018-08-09T00:03:47.704Z,87.52
2018-08-09T00:04:47.723Z,88.29
2018-08-09T00:05:47.749Z,87.23
2018-08-09T00:06:47.761Z,87.23
2018-08-09T00:07:47.789Z,87.14
2018-08-09T00:08:47.806Z,87.43
2018-08-09T00:09:47.823Z,87.23
2018-08-09T00:10:47.839Z,87.43
2018-08-09T00:11:47.859Z,87.43
2018-08-09T00:12:47.878Z,87.33
2018-08-09T00:13:47.898Z,87.52
2018-08-09T00:14:47.917Z,86.94
2018-08-09T00:15:47.937Z,86.66
2018-08-09T00:16:47.957Z,86.66
2018-08-09T00:17:47.975Z,86.94
2018-08-09T00:18:47.996Z,86.66
2018-08-09T00:19:48.015Z,85.89
2018-08-09T00:20:48.038Z,86.57
2018-08-09T00:21:48.053Z,86.57
2018-08-09T00:22:48.075Z,86.08
2018-08-09T00:23:48.169Z,85.61
2018-08-09T00:24:48.115Z,85.80
2018-08-09T00:25:48.135Z,85.61
2018-08-09T00:26:48.156Z,85.61
2018-08-09T00:27:48.171Z,85.61
2018-08-09T00:28:48.194Z,85.61
2018-08-09T00:29:48.209Z,85.61
2018-08-09T00:30:48.235Z,85.80
2018-08-09T00:31:48.251Z,85.22
2018-08-09T00:32:48.273Z,85.32
2018-08-09T00:33:48.288Z,85.32
2018-08-09T00:34:48.307Z,85.61
2018-08-09T00:35:48.329Z,85.32
2018-08-09T00:36:48.347Z,85.51
2018-08-09T00:37:48.366Z,85.61
2018-08-09T00:38:48.385Z,85.13
2018-08-09T00:39:48.414Z,85.99
2018-08-09T00:40:48.426Z,87.62
2018-08-09T00:41:48.444Z,87.14
2018-08-09T00:42:48.468Z,88.19
2018-08-09T00:43:48.484Z,87.90
2018-08-09T00:44:48.504Z,88.19
2018-08-09T00:45:48.526Z,87.14
2018-08-09T00:46:48.553Z,86.85
2018-08-09T00:47:48.561Z,86.47
2018-08-09T00:48:48.590Z,86.76
2018-08-09T00:49:48.602Z,86.57
2018-08-09T00:50:48.621Z,86.76
2018-08-09T00:51:48.639Z,86.66
2018-08-09T00:52:48.658Z,86.66
2018-08-09T00:53:48.681Z,86.66
2018-08-09T00:54:48.701Z,86.85
2018-08-09T00:55:48.721Z,86.66
2018-08-09T00:56:48.738Z,87.14
2018-08-09T00:57:48.760Z,87.23
2018-08-09T00:58:48.776Z,86.66
2018-08-09T00:59:48.796Z,85.99
2018-08-09T01:00:48.818Z,85.89
2018-08-09T01:01:48.834Z,85.89
2018-08-09T01:02:48.854Z,85.71
2018-08-09T01:03:48.876Z,85.41
2018-08-09T01:04:48.894Z,85.51
2018-08-09T01:05:48.914Z,85.51
2018-08-09T01:06:48.935Z,85.13
2018-08-09T01:07:48.953Z,85.32
2018-08-09T01:08:48.974Z,85.51
2018-08-09T01:09:48.994Z,85.71
2018-08-09T01:10:49.014Z,85.71
2018-08-09T01:11:49.032Z,85.71
2018-08-09T01:12:49.052Z,85.61
2018-08-09T01:13:49.072Z,85.71
2018-08-09T01:14:49.091Z,86.28
2018-08-09T01:15:49.113Z,86.28
2018-08-09T01:16:49.130Z,86.08
2018-08-09T01:17:49.149Z,85.61
2018-08-09T01:18:49.168Z,85.80
2018-08-09T01:19:49.188Z,85.99
2018-08-09T01:20:49.210Z,85.89
2018-08-09T01:21:49.230Z,86.08
2018-08-09T01:22:49.244Z,86.08
2018-08-09T01:23:49.265Z,86.08
2018-08-09T01:24:49.286Z,86.23
2018-08-09T01:25:49.306Z,85.32
2018-08-09T01:26:49.325Z,85.22
2018-08-09T01:27:49.345Z,85.51
2018-08-09T01:28:49.364Z,85.51
2018-08-09T01:29:49.385Z,85.57
2018-08-09T01:30:49.404Z,85.32
2018-08-09T01:31:49.422Z,84.99
2018-08-09T01:32:49.499Z,84.94
2018-08-09T01:33:49.461Z,84.27
2018-08-09T01:34:49.480Z,84.94
2018-08-09T01:35:49.501Z,84.84
2018-08-09T01:36:49.518Z,84.65
2018-08-09T01:37:49.538Z,84.27
2018-08-09T01:38:49.558Z,84.36
2018-08-09T01:39:49.583Z,84.36
2018-08-09T01:40:49.597Z,84.27
2018-08-09T01:41:49.618Z,84.27
2018-08-09T01:42:49.637Z,84.84
2018-08-09T01:43:49.657Z,84.84
2018-08-09T01:44:49.674Z,84.17
2018-08-09T01:45:49.695Z,84.65
2018-08-09T01:46:49.714Z,83.50
2018-08-09T01:47:49.731Z,83.31
2018-08-09T01:48:49.751Z,82.31
2018-08-09T01:49:49.777Z,82.17
2018-08-09T01:50:49.792Z,81.97
2018-08-09T01:51:49.815Z,82.17
2018-08-09T01:52:49.828Z,81.84
2018-08-09T01:53:49.849Z,82.17
2018-08-09T01:54:49.877Z,81.97
2018-08-09T01:55:49.893Z,81.78
2018-08-09T01:56:49.907Z,81.26
2018-08-09T01:57:49.925Z,81.49
2018-08-09T01:58:49.945Z,80.88
2018-08-09T01:59:49.966Z,80.79
2018-08-09T02:00:49.985Z,80.79
2018-08-09T02:01:50.006Z,81.65
2018-08-09T02:02:50.024Z,82.12
2018-08-09T02:03:50.042Z,82.98
2018-08-09T02:04:50.199Z,84.23
2018-08-09T02:05:50.083Z,84.89
2018-08-09T02:06:50.102Z,84.13
2018-08-09T02:07:50.123Z,84.13
2018-08-09T02:08:50.143Z,84.99
2018-08-09T02:09:50.158Z,84.99
2018-08-09T02:10:50.177Z,85.47
2018-08-09T02:11:50.200Z,86.14
2018-08-09T02:12:50.251Z,85.75
2018-08-09T02:13:50.242Z,85.38
2018-08-09T02:14:50.255Z,85.47
2018-08-09T02:15:50.277Z,84.99
2018-08-09T02:16:50.293Z,84.99
2018-08-09T02:17:50.313Z,84.99
2018-08-09T02:18:50.333Z,84.13
2018-08-09T02:19:50.350Z,84.03
2018-08-09T02:20:50.373Z,82.98
2018-08-09T02:21:50.391Z,82.70
2018-08-09T02:22:50.408Z,82.60
2018-08-09T02:23:50.427Z,83.37
2018-08-09T02:24:50.447Z,83.27
2018-08-09T02:25:50.464Z,83.08
2018-08-09T02:26:50.483Z,82.89
2018-08-09T02:27:50.507Z,82.79
2018-08-09T02:28:50.523Z,83.08
2018-08-09T02:29:50.543Z,82.41
2018-08-09T02:30:50.561Z,82.41
2018-08-09T02:31:50.592Z,83.37
2018-08-09T02:32:50.607Z,82.98
2018-08-09T02:33:50.620Z,82.89
2018-08-09T02:34:50.637Z,83.37
2018-08-09T02:35:50.657Z,82.79
2018-08-09T02:36:50.676Z,83.27
2018-08-09T02:37:50.695Z,82.89
2018-08-09T02:38:50.713Z,82.79
2018-08-09T02:39:50.739Z,83.94
2018-08-09T02:40:50.752Z,84.23
2018-08-09T02:41:50.772Z,84.80
2018-08-09T02:42:50.789Z,84.70
2018-08-09T02:43:50.808Z,84.42
2018-08-09T02:44:50.829Z,84.61
2018-08-09T02:45:50.850Z,85.18
2018-08-09T02:46:50.910Z,85.09
2018-08-09T02:47:50.886Z,84.70
2018-08-09T02:48:50.904Z,84.80
2018-08-09T02:49:50.924Z,84.23
2018-08-09T02:50:50.946Z,83.46
2018-08-09T02:51:50.962Z,83.46
2018-08-09T02:52:50.981Z,82.98
2018-08-09T02:53:51.004Z,83.84
2018-08-09T02:54:51.020Z,84.13
2018-08-09T02:55:51.039Z,84.23
2018-08-09T02:56:51.059Z,84.61
2018-08-09T02:57:51.079Z,83.94
2018-08-09T02:58:51.094Z,84.52
2018-08-09T02:59:51.118Z,84.61
2018-08-09T03:00:51.137Z,85.09
2018-08-09T03:01:51.156Z,85.47
2018-08-09T03:02:51.173Z,85.94
2018-08-09T03:03:51.193Z,86.14
2018-08-09T03:04:51.216Z,86.61
2018-08-09T03:05:51.235Z,87.29
2018-08-09T03:06:51.255Z,87.00
2018-08-09T03:07:51.269Z,87.38
2018-08-09T03:08:51.289Z,87.76
2018-08-09T03:09:51.306Z,87.15
2018-08-09T03:10:51.324Z,87.62
2018-08-09T03:11:51.345Z,87.62
2018-08-09T03:12:51.367Z,88.20
2018-08-09T03:13:51.381Z,87.91
2018-08-09T03:14:51.400Z,87.15
2018-08-09T03:15:51.420Z,86.86
2018-08-09T03:16:51.438Z,86.29
2018-08-09T03:17:51.461Z,86.57
2018-08-09T03:18:51.476Z,85.85
2018-08-09T03:19:51.494Z,86.14
2018-08-09T03:20:51.515Z,85.28
2018-08-09T03:21:51.536Z,85.18
2018-08-09T03:22:51.553Z,85.47
2018-08-09T03:23:51.576Z,86.14
2018-08-09T03:24:51.593Z,86.00
2018-08-09T03:25:51.614Z,86.14
2018-08-09T03:26:51.628Z,85.57
2018-08-09T03:27:51.648Z,85.47
2018-08-09T03:28:51.666Z,85.33
2018-08-09T03:29:51.683Z,85.24
2018-08-09T03:30:51.702Z,85.14
2018-08-09T03:31:51.722Z,85.05
2018-08-09T03:32:51.742Z,85.42
2018-08-09T03:33:51.760Z,84.99
2018-08-09T03:34:51.778Z,85.09
2018-08-09T03:35:51.798Z,84.66
2018-08-09T03:36:51.817Z,84.13
2018-08-09T03:37:51.837Z,84.13
2018-08-09T03:38:51.855Z,84.42
2018-08-09T03:39:51.873Z,84.32
2018-08-09T03:40:51.892Z,84.32
2018-08-09T03:41:51.912Z,84.23
2018-08-09T03:42:51.932Z,84.03
2018-08-09T03:43:51.952Z,84.76
2018-08-09T03:44:51.968Z,84.80
2018-08-09T03:45:51.988Z,84.70
2018-08-09T03:46:52.005Z,84.52
2018-08-09T03:47:52.024Z,84.61
2018-08-09T03:48:52.042Z,84.61
2018-08-09T03:49:52.108Z,84.99
2018-08-09T03:50:52.084Z,85.09
2018-08-09T03:51:52.099Z,85.28
2018-08-09T03:52:52.120Z,84.95
2018-08-09T03:53:52.137Z,85.18
2018-08-09T03:54:52.157Z,85.18
2018-08-09T03:55:52.176Z,85.05
2018-08-09T03:56:52.202Z,84.80
2018-08-09T03:57:52.214Z,84.80
2018-08-09T03:58:52.231Z,84.89
2018-08-09T03:59:52.251Z,85.18
2018-08-09T04:00:52.272Z,84.76
2018-08-09T04:01:52.290Z,84.89
2018-08-09T04:02:52.308Z,84.99
2018-08-09T04:03:52.327Z,85.66
2018-08-09T04:04:52.346Z,84.80
2018-08-09T04:05:52.371Z,84.76
2018-08-09T04:06:52.384Z,83.80
2018-08-09T04:07:52.403Z,83.90
2018-08-09T04:08:52.423Z,84.09
2018-08-09T04:09:52.442Z,84.09
2018-08-09T04:10:52.459Z,83.90
2018-08-09T04:11:52.580Z,83.94
2018-08-09T04:12:52.499Z,84.19
2018-08-09T04:13:52.518Z,83.33
2018-08-09T04:14:52.535Z,82.79
2018-08-09T04:15:52.553Z,82.08
2018-08-09T04:16:52.574Z,81.84
2018-08-09T04:17:52.639Z,81.74
2018-08-09T04:18:52.613Z,81.65
2018-08-09T04:19:52.629Z,81.36
2018-08-09T04:20:52.647Z,81.65
2018-08-09T04:21:52.668Z,81.55
2018-08-09T04:22:52.688Z,81.41
2018-08-09T04:23:52.707Z,82.03
2018-08-09T04:24:52.724Z,82.03
2018-08-09T04:25:52.744Z,81.55
2018-08-09T04:26:52.760Z,81.41
2018-08-09T04:27:52.780Z,81.55
2018-08-09T04:28:52.797Z,81.55
2018-08-09T04:29:52.817Z,81.55
2018-08-09T04:30:52.836Z,81.51
2018-08-09T04:31:52.854Z,81.16
2018-08-09T04:32:52.880Z,81.45
2018-08-09T04:33:52.895Z,81.26
2018-08-09T04:34:52.910Z,81.16
2018-08-09T04:35:52.928Z,81.74
2018-08-09T04:36:52.956Z,82.03
2018-08-09T04:37:53.022Z,82.12
2018-08-09T04:38:52.987Z,82.89
2018-08-09T04:39:53.056Z,81.99
2018-08-09T04:40:53.024Z,82.03
2018-08-09T04:41:53.046Z,81.93
2018-08-09T04:42:53.061Z,82.03
2018-08-09T04:43:53.085Z,81.74
2018-08-09T04:44:53.127Z,81.93
2018-08-09T04:45:53.119Z,81.32
2018-08-09T04:46:53.138Z,82.03
2018-08-09T04:47:53.157Z,81.79
2018-08-09T04:48:53.183Z,81.74
2018-08-09T04:49:53.195Z,80.65
2018-08-09T04:50:53.213Z,81.13
2018-08-09T04:51:53.230Z,80.88
2018-08-09T04:52:53.253Z,80.88
2018-08-09T04:53:53.270Z,80.59
2018-08-09T04:54:53.289Z,80.79
2018-08-09T04:55:53.309Z,80.02
2018-08-09T04:56:53.325Z,80.40
2018-08-09T04:57:53.345Z,79.64
2018-08-09T04:58:53.362Z,79.93
2018-08-09T04:59:53.385Z,79.25
2018-08-09T05:00:53.402Z,78.78
2018-08-09T05:01:53.420Z,79.16
2018-08-09T05:02:53.442Z,79.35
2018-08-09T05:03:53.455Z,79.64
2018-08-09T05:04:53.476Z,79.25
2018-08-09T05:05:53.494Z,78.78
2018-08-09T05:06:53.512Z,79.35
2018-08-09T05:07:53.542Z,79.35
2018-08-09T05:08:53.550Z,79.25
2018-08-09T05:09:53.568Z,79.54
2018-08-09T05:10:53.589Z,79.73
2018-08-09T05:11:53.632Z,79.35
2018-08-09T05:12:53.626Z,79.73
2018-08-09T05:13:53.646Z,79.64
2018-08-09T05:14:53.664Z,80.40
2018-08-09T05:15:53.690Z,80.11
2018-08-09T05:16:53.701Z,80.40
2018-08-09T05:17:53.720Z,78.87
2018-08-09T05:18:53.740Z,79.16
2018-08-09T05:19:53.756Z,78.30
2018-08-09T05:20:53.777Z,78.39
2018-08-09T05:21:53.797Z,77.92
2018-08-09T05:22:53.814Z,78.49
2018-08-09T05:23:53.833Z,77.25
2018-08-09T05:24:53.947Z,77.25
2018-08-09T05:25:53.872Z,76.86
2018-08-09T05:26:53.894Z,77.34
2018-08-09T05:27:53.909Z,77.15
2018-08-09T05:28:53.927Z,77.06
2018-08-09T05:29:53.948Z,76.00
2018-08-09T05:30:53.969Z,76.86
2018-08-09T05:31:53.984Z,77.15
2018-08-09T05:32:54.006Z,77.15
2018-08-09T05:33:54.025Z,76.77
2018-08-09T05:34:54.043Z,77.44
2018-08-09T05:35:54.061Z,77.25
2018-08-09T05:36:54.087Z,77.82
2018-08-09T05:37:54.100Z,77.63
2018-08-09T05:38:54.124Z,77.82
2018-08-09T05:39:54.139Z,77.92
2018-08-09T05:40:54.157Z,77.44
2018-08-09T05:41:54.176Z,77.72
2018-08-09T05:42:54.192Z,78.20
2018-08-09T05:43:54.215Z,78.20
2018-08-09T05:44:54.236Z,78.30
2018-08-09T05:45:54.252Z,77.72
2018-08-09T05:46:54.268Z,78.49
2018-08-09T05:47:54.289Z,77.63
2018-08-09T05:48:54.311Z,77.34
2018-08-09T05:49:54.333Z,78.05
2018-08-09T05:50:54.346Z,77.15
2018-08-09T05:51:54.367Z,77.00
2018-08-09T05:52:54.475Z,78.39
2018-08-09T05:53:54.403Z,78.43
2018-08-09T05:54:54.431Z,78.58
2018-08-09T05:55:54.441Z,78.53
2018-08-09T05:56:54.460Z,78.34
2018-08-09T05:57:54.477Z,78.72
2018-08-09T05:58:54.496Z,77.38
2018-08-09T05:59:54.517Z,77.86
2018-08-09T06:00:54.538Z,77.67
2018-08-09T06:01:54.554Z,77.28
2018-08-09T06:02:54.575Z,77.19
2018-08-09T06:03:54.592Z,78.34
2018-08-09T06:04:54.643Z,79.00
2018-08-09T06:05:54.631Z,79.20
2018-08-09T06:06:54.653Z,77.38
2018-08-09T06:07:54.666Z,76.90
2018-08-09T06:08:54.688Z,77.38
2018-08-09T06:09:54.705Z,77.19
2018-08-09T06:10:54.723Z,77.13
2018-08-09T06:11:54.756Z,77.23
2018-08-09T06:12:54.762Z,76.65
2018-08-09T06:13:54.842Z,77.33
2018-08-09T06:14:54.858Z,75.98
2018-08-09T06:15:54.893Z,77.70
2018-08-09T06:16:54.839Z,77.80
2018-08-09T06:17:54.858Z,77.42
2018-08-09T06:18:54.931Z,77.80
2018-08-09T06:19:54.900Z,77.90
2018-08-09T06:20:54.916Z,77.70
2018-08-09T06:21:54.936Z,77.42
2018-08-09T06:22:54.954Z,76.84
2018-08-09T06:23:54.971Z,75.51
2018-08-09T06:24:54.992Z,74.74
2018-08-09T06:25:55.015Z,73.88
2018-08-09T06:26:55.030Z,73.34
2018-08-09T06:27:55.049Z,72.00
2018-08-09T06:28:55.069Z,73.34
2018-08-09T06:29:55.095Z,74.30
2018-08-09T06:30:55.114Z,73.54
2018-08-09T06:31:55.129Z,72.58
2018-08-09T06:32:55.146Z,73.72
2018-08-09T06:33:55.168Z,72.67
2018-08-09T06:34:55.188Z,74.01
2018-08-09T06:35:55.205Z,74.87
2018-08-09T06:36:55.227Z,74.30
2018-08-09T06:37:55.244Z,75.16
2018-08-09T06:38:55.268Z,75.54
2018-08-09T06:39:55.282Z,74.30
2018-08-09T06:40:55.302Z,74.97
2018-08-09T06:41:55.321Z,73.91
2018-08-09T06:42:55.343Z,73.63
2018-08-09T06:43:55.360Z,74.97
2018-08-09T06:44:55.379Z,74.05
2018-08-09T06:45:55.399Z,72.86
2018-08-09T06:46:55.420Z,73.09
2018-08-09T06:47:55.438Z,72.52
2018-08-09T06:48:55.457Z,71.66
2018-08-09T06:49:55.477Z,73.09
2018-08-09T06:50:55.497Z,72.61
2018-08-09T06:51:55.516Z,72.71
2018-08-09T06:52:55.545Z,71.84
2018-08-09T06:53:55.560Z,72.42
2018-08-09T06:54:55.578Z,72.42
2018-08-09T06:55:55.595Z,70.70
2018-08-09T06:56:55.614Z,70.41
2018-08-09T06:57:55.635Z,70.79
2018-08-09T06:58:55.652Z,72.42
2018-08-09T06:59:55.677Z,71.75
2018-08-09T07:00:55.693Z,70.03
2018-08-09T07:01:55.714Z,69.54
2018-08-09T07:02:55.731Z,68.30
2018-08-09T07:03:55.752Z,69.17
2018-08-09T07:04:55.773Z,69.26
2018-08-09T07:05:55.797Z,69.77
2018-08-09T07:06:55.866Z,69.20
2018-08-09T07:07:55.841Z,70.25
2018-08-09T07:08:55.851Z,71.69
2018-08-09T07:09:55.870Z,73.41
2018-08-09T07:10:55.890Z,73.70
2018-08-09T07:11:55.909Z,71.69
2018-08-09T07:12:56.023Z,71.21
2018-08-09T07:13:55.951Z,68.72
2018-08-09T07:14:55.971Z,66.99
2018-08-09T07:15:55.990Z,68.52
2018-08-09T07:16:56.012Z,68.91
2018-08-09T07:17:56.033Z,69.68
2018-08-09T07:18:56.060Z,68.14
2018-08-09T07:19:56.096Z,67.76
2018-08-09T07:20:56.091Z,68.14
2018-08-09T07:21:56.115Z,67.18
2018-08-09T07:22:56.131Z,67.12
2018-08-09T07:23:56.156Z,67.12
2018-08-09T07:24:56.171Z,66.83
2018-08-09T07:25:56.190Z,67.69
2018-08-09T07:26:56.218Z,71.34
2018-08-09T07:27:56.229Z,69.52
2018-08-09T07:28:56.249Z,70.76
2018-08-09T07:29:56.270Z,72.01
2018-08-09T07:30:56.290Z,70.48
2018-08-09T07:31:56.311Z,68.37
2018-08-09T07:32:56.331Z,69.42
2018-08-09T07:33:56.351Z,68.46
2018-08-09T07:34:56.371Z,69.23
2018-08-09T07:35:56.392Z,68.95
2018-08-09T07:36:56.412Z,67.41
2018-08-09T07:37:56.433Z,68.30
2018-08-09T07:38:56.451Z,68.30
2018-08-09T07:39:56.483Z,68.98
2018-08-09T07:40:56.490Z,67.06
2018-08-09T07:41:56.512Z,68.79
2018-08-09T07:42:56.530Z,67.16
2018-08-09T07:43:56.553Z,66.86
2018-08-09T07:44:56.576Z,64.56
2018-08-09T07:45:56.593Z,68.98
2018-08-09T07:46:56.612Z,69.17
2018-08-09T07:47:56.634Z,68.21
2018-08-09T07:48:56.654Z,69.56
2018-08-09T07:49:56.677Z,69.26
2018-08-09T07:50:56.710Z,67.83
2018-08-09T07:51:56.713Z,67.06
2018-08-09T07:52:56.734Z,68.50
2018-08-09T07:53:56.756Z,68.12
2018-08-09T07:54:56.775Z,69.84
2018-08-09T07:55:56.796Z,65.52
2018-08-09T07:56:56.834Z,66.19
2018-08-09T07:57:56.836Z,65.91
2018-08-09T07:58:56.873Z,63.42
2018-08-09T07:59:56.877Z,67.83
2018-08-09T08:00:56.940Z,65.56
2018-08-09T08:01:56.922Z,65.52
2018-08-09T08:02:56.942Z,68.40
2018-08-09T08:03:56.960Z,69.59
2018-08-09T08:04:56.982Z,64.40
2018-08-09T08:05:57.009Z,69.40
2018-08-09T08:06:57.022Z,65.65
2018-08-09T08:07:57.043Z,65.08
2018-08-09T08:08:57.063Z,64.59
2018-08-09T08:09:57.087Z,67.00
2018-08-09T08:10:57.108Z,68.34
2018-08-09T08:11:57.129Z,67.29
2018-08-09T08:12:57.159Z,65.65
2018-08-09T08:13:57.168Z,65.78
2018-08-09T08:14:57.216Z,66.55
2018-08-09T08:15:57.208Z,65.97
2018-08-09T08:16:57.230Z,64.82
2018-08-09T08:17:57.250Z,64.72
2018-08-09T08:18:57.272Z,65.78
2018-08-09T08:19:57.291Z,67.22
2018-08-09T08:20:57.316Z,63.28
2018-08-09T08:21:57.333Z,63.76
2018-08-09T08:22:57.358Z,62.71
2018-08-09T08:23:57.376Z,64.05
2018-08-09T08:24:57.398Z,62.71
2018-08-09T08:25:57.418Z,62.71
2018-08-09T08:26:57.441Z,62.01
2018-08-09T08:27:57.459Z,62.68
2018-08-09T08:28:57.483Z,60.21
2018-08-09T08:29:57.503Z,61.17
2018-08-09T08:30:57.522Z,62.32
2018-08-09T08:31:57.543Z,63.67
2018-08-09T08:32:57.565Z,61.27
2018-08-09T08:33:57.588Z,59.66
2018-08-09T08:34:57.653Z,60.24
2018-08-09T08:35:57.632Z,59.86
2018-08-09T08:36:57.650Z,60.63
2018-08-09T08:37:57.676Z,61.11
2018-08-09T08:38:57.692Z,61.14
2018-08-09T08:39:57.715Z,62.38
2018-08-09T08:40:57.733Z,61.14
2018-08-09T08:41:57.759Z,59.50
2018-08-09T08:42:57.776Z,59.89
2018-08-09T08:43:57.804Z,59.82
2018-08-09T08:44:57.819Z,61.46
2018-08-09T08:45:57.843Z,59.63
2018-08-09T08:46:57.864Z,59.63
2018-08-09T08:47:57.887Z,57.87
2018-08-09T08:48:57.906Z,60.17
2018-08-09T08:49:57.928Z,57.68
2018-08-09T08:50:57.948Z,57.00
2018-08-09T08:51:57.971Z,56.30
2018-08-09T08:52:57.991Z,57.17
2018-08-09T08:53:58.014Z,58.92
2018-08-09T08:54:58.036Z,58.73
2018-08-09T08:55:58.058Z,59.50
2018-08-09T08:56:58.078Z,57.70
2018-08-09T08:57:58.100Z,59.82
2018-08-09T08:58:58.155Z,60.04
2018-08-09T08:59:58.143Z,59.27
2018-08-09T09:00:58.278Z,55.52
2018-08-09T09:01:58.189Z,56.58
2018-08-09T09:02:58.212Z,56.87
2018-08-09T09:03:58.230Z,57.45
2018-08-09T09:04:58.295Z,58.89
2018-08-09T09:05:58.277Z,58.60
2018-08-09T09:06:58.377Z,59.94
2018-08-09T09:07:58.318Z,59.08
2018-08-09T09:08:58.341Z,55.88
2018-08-09T09:09:58.363Z,59.15
2018-08-09T09:10:58.604Z,57.35
2018-08-09T09:11:58.405Z,57.73
2018-08-09T09:12:58.435Z,57.54
2018-08-09T09:13:58.453Z,57.13
2018-08-09T09:14:58.472Z,59.72
2018-08-09T09:15:58.494Z,60.01
2018-08-09T09:16:58.515Z,59.44
2018-08-09T09:17:58.539Z,59.72
2018-08-09T09:18:59.564Z,58.95
2018-08-09T09:19:58.581Z,59.75
2018-08-09T09:20:58.604Z,58.70
2018-08-09T09:21:58.626Z,58.60
2018-08-09T09:22:58.653Z,56.58
2018-08-09T09:23:58.674Z,56.00
2018-08-09T09:24:58.692Z,55.01
2018-08-09T09:25:58.715Z,55.40
2018-08-09T09:26:58.763Z,56.16
2018-08-09T09:27:58.759Z,57.32
2018-08-09T09:28:58.787Z,58.37
2018-08-09T09:29:58.803Z,57.70
2018-08-09T09:30:58.828Z,56.16
2018-08-09T09:31:58.848Z,57.83
2018-08-09T09:32:58.872Z,58.63
2018-08-09T09:33:58.894Z,53.40
2018-08-09T09:34:58.960Z,51.96
2018-08-09T09:35:58.937Z,52.34
2018-08-09T09:36:58.959Z,54.87
2018-08-09T09:37:58.984Z,55.93
2018-08-09T09:38:59.008Z,56.03
2018-08-09T09:39:59.029Z,56.22
2018-08-09T09:40:59.054Z,56.41
2018-08-09T09:41:59.074Z,57.67
2018-08-09T09:42:59.097Z,59.52
2018-08-09T09:43:59.123Z,57.02
2018-08-09T09:44:59.149Z,56.63
2018-08-09T09:45:59.167Z,57.12
2018-08-09T09:46:59.188Z,56.09
2018-08-09T09:47:59.214Z,55.12
2018-08-09T09:48:59.235Z,55.22
2018-08-09T09:49:59.258Z,55.70
2018-08-09T09:50:59.281Z,57.62
2018-08-09T09:51:59.303Z,56.37
2018-08-09T09:52:59.327Z,56.09
2018-08-09T09:53:59.353Z,57.43
2018-08-09T09:54:59.407Z,55.70
2018-08-09T09:55:59.429Z,54.93
2018-08-09T09:56:59.422Z,54.52
2018-08-09T09:57:59.444Z,54.32
2018-08-09T09:58:59.472Z,56.35
2018-08-09T09:59:59.489Z,56.05
2018-08-09T10:00:59.514Z,56.15
2018-08-09T10:01:59.560Z,55.67
2018-08-09T10:02:59.561Z,57.02
2018-08-09T10:03:59.585Z,56.92
2018-08-09T10:04:59.608Z,56.05
2018-08-09T10:05:59.631Z,56.15
2018-08-09T10:06:59.670Z,56.09
2018-08-09T10:07:59.678Z,55.24
2018-08-09T10:08:59.706Z,54.28
2018-08-09T10:09:59.726Z,54.60
2018-08-09T10:10:59.751Z,54.31
2018-08-09T10:11:59.775Z,57.01
2018-08-09T10:12:59.801Z,53.17
2018-08-09T10:13:59.821Z,50.84
2018-08-09T10:14:59.846Z,52.57
2018-08-09T10:15:59.870Z,53.70
2018-08-09T10:16:59.893Z,52.55
2018-08-09T10:17:59.916Z,53.48
2018-08-09T10:18:59.946Z,55.73
2018-08-09T10:19:59.965Z,54.06
2018-08-09T10:20:59.991Z,55.54
2018-08-09T10:22:00.015Z,56.04
2018-08-09T10:23:00.038Z,54.17
2018-08-09T10:24:00.062Z,53.11
2018-08-09T10:25:00.088Z,49.15
2018-08-09T10:26:00.116Z,49.63
2018-08-09T10:27:00.137Z,49.41
2018-08-09T10:28:00.161Z,50.93
2018-08-09T10:29:00.187Z,52.37
2018-08-09T10:30:00.260Z,54.11
2018-08-09T10:31:00.234Z,52.91
2018-08-09T10:32:00.259Z,53.31
2018-08-09T10:33:00.285Z,53.31
2018-08-09T10:34:00.310Z,54.11
2018-08-09T10:35:00.406Z,53.44
2018-08-09T10:36:00.357Z,55.08
2018-08-09T10:37:00.382Z,53.66
2018-08-09T10:38:00.407Z,53.59
2018-08-09T10:39:00.431Z,52.14
2018-08-09T10:40:00.456Z,50.98
2018-08-09T10:41:00.480Z,49.44
2018-08-09T10:42:00.506Z,51.75
2018-08-09T10:43:00.530Z,50.31
2018-08-09T10:44:00.557Z,51.25
2018-08-09T10:45:00.579Z,51.25
2018-08-09T10:46:00.610Z,51.63
2018-08-09T10:47:00.628Z,52.11
2018-08-09T10:48:00.656Z,50.31
2018-08-09T10:49:00.713Z,50.98
2018-08-09T10:50:00.705Z,50.98
2018-08-09T10:51:00.799Z,50.98
2018-08-09T10:52:00.758Z,51.07
2018-08-09T10:53:00.779Z,50.86
2018-08-09T10:54:00.806Z,51.94
2018-08-09T10:55:00.829Z,55.70
2018-08-09T10:56:00.856Z,54.38
2018-08-09T10:57:00.893Z,52.95
2018-08-09T10:58:00.910Z,55.01
2018-08-09T10:59:00.930Z,53.08
2018-08-09T11:00:00.959Z,50.76
2018-08-09T11:01:00.981Z,49.68
2018-08-09T11:02:01.008Z,51.68
2018-08-09T11:03:01.033Z,51.84
2018-08-09T11:04:01.058Z,53.07
2018-08-09T11:05:01.083Z,53.19
2018-08-09T11:06:01.110Z,53.58
2018-08-09T11:07:01.168Z,53.41
2018-08-09T11:08:01.161Z,52.16
2018-08-09T11:09:01.187Z,51.77
2018-08-09T11:10:01.213Z,52.86
2018-08-09T11:11:01.231Z,50.59
2018-08-09T11:12:01.257Z,52.25
2018-08-09T11:13:01.284Z,50.71
2018-08-09T11:14:01.306Z,51.00
2018-08-09T11:15:01.348Z,52.47
2018-08-09T11:16:01.354Z,50.38
2018-08-09T11:17:01.422Z,50.86
2018-08-09T11:18:01.411Z,51.95
2018-08-09T11:19:01.459Z,51.29
2018-08-09T11:20:01.456Z,48.57
2018-08-09T11:21:01.482Z,50.11
2018-08-09T11:22:01.506Z,52.71
2018-08-09T11:23:01.532Z,53.03
2018-08-09T11:24:01.557Z,50.90
2018-08-09T11:25:01.582Z,51.36
2018-08-09T11:26:01.604Z,53.00
2018-08-09T11:27:01.630Z,54.25
2018-08-09T11:28:01.654Z,52.73
2018-08-09T11:29:01.680Z,52.16
2018-08-09T11:30:01.705Z,53.51
2018-08-09T11:31:01.731Z,52.19
2018-08-09T11:32:01.759Z,51.80
2018-08-09T11:33:01.779Z,50.74
2018-08-09T11:34:01.826Z,50.42
2018-08-09T11:35:01.827Z,51.70
2018-08-09T11:36:01.852Z,50.06
2018-08-09T11:37:01.879Z,50.42
2018-08-09T11:38:01.906Z,51.05
2018-08-09T11:39:01.929Z,52.91
2018-08-09T11:40:01.955Z,53.00
2018-08-09T11:41:01.977Z,52.91
2018-08-09T11:42:02.004Z,52.25
2018-08-09T11:43:02.063Z,51.97
2018-08-09T11:44:02.054Z,51.48
2018-08-09T11:45:02.076Z,51.29
2018-08-09T11:46:02.111Z,53.73
2018-08-09T11:47:02.127Z,50.52
2018-08-09T11:48:02.156Z,50.88
2018-08-09T11:49:02.182Z,51.82
2018-08-09T11:50:02.205Z,54.30
2018-08-09T11:51:02.231Z,55.65
2018-08-09T11:52:02.254Z,55.13
2018-08-09T11:53:02.277Z,55.90
2018-08-09T11:54:02.307Z,56.58
2018-08-09T11:55:02.351Z,57.54
2018-08-09T11:56:02.391Z,57.99
2018-08-09T11:57:02.410Z,58.09
2018-08-09T11:58:02.401Z,59.53
2018-08-09T11:59:02.426Z,59.53
2018-08-09T12:00:02.449Z,59.69
2018-08-09T12:01:02.474Z,61.01
2018-08-09T12:02:02.499Z,62.93
2018-08-09T12:03:02.520Z,62.84
2018-08-09T12:04:02.547Z,62.74
2018-08-09T12:05:02.576Z,62.35
2018-08-09T12:06:02.598Z,63.12
2018-08-09T12:07:02.679Z,63.22
2018-08-09T12:08:02.646Z,64.43
2018-08-09T12:09:02.669Z,65.78
2018-08-09T12:10:02.693Z,65.30
2018-08-09T12:11:02.714Z,66.52
2018-08-09T12:12:02.737Z,67.29
2018-08-09T12:13:02.762Z,68.15
2018-08-09T12:14:02.788Z,68.34
2018-08-09T12:15:02.858Z,68.28
2018-08-09T12:16:02.834Z,68.08
2018-08-09T12:17:02.859Z,69.14
2018-08-09T12:18:02.880Z,69.97
2018-08-09T12:19:02.900Z,71.35
2018-08-09T12:20:02.924Z,71.70
2018-08-09T12:21:02.959Z,73.27
2018-08-09T12:22:02.970Z,73.75
2018-08-09T12:23:02.992Z,75.10
2018-08-09T12:24:03.029Z,75.73
2018-08-09T12:25:03.040Z,76.06
2018-08-09T12:26:03.060Z,74.87
2018-08-09T12:27:03.160Z,76.21
2018-08-09T12:28:03.108Z,75.73
2018-08-09T12:29:03.166Z,76.02
2018-08-09T12:30:03.153Z,76.12
2018-08-09T12:31:03.172Z,76.88
2018-08-09T12:32:03.197Z,76.40
2018-08-09T12:33:03.256Z,76.50
2018-08-09T12:34:03.244Z,76.31
2018-08-09T12:35:03.262Z,74.48
2018-08-09T12:36:03.285Z,75.54
2018-08-09T12:37:03.310Z,75.50
2018-08-09T12:38:03.332Z,75.63
2018-08-09T12:39:03.352Z,74.87
2018-08-09T12:40:03.380Z,75.45
2018-08-09T12:41:03.399Z,76.12
2018-08-09T12:42:03.425Z,76.21
2018-08-09T12:43:03.446Z,75.82
2018-08-09T12:44:03.467Z,74.44
2018-08-09T12:45:03.489Z,77.61
2018-08-09T12:46:03.511Z,78.57
2018-08-09T12:47:03.532Z,78.77
2018-08-09T12:48:03.556Z,78.90
2018-08-09T12:49:03.578Z,78.67
2018-08-09T12:50:03.600Z,80.01
2018-08-09T12:51:03.621Z,80.40
2018-08-09T12:52:03.644Z,81.93
2018-08-09T12:53:03.666Z,81.35